sensor_id;sensor_type;location;lat;lon;timestamp;P1;durP1;ratioP1;P2;durP2;ratioP2
53646;SDS011;39550;52.230;5.194;2023-07-31T00:01:21;3.30;;;1.95;;
53646;SDS011;39550;52.230;5.194;2023-07-31T00:03:47;4.97;;;2.22;;
53646;SDS011;39550;52.230;5.194;2023-07-31T00:06:12;3.83;;;2.15;;
53646;SDS011;39550;52.230;5.194;2023-07-31T00:08:38;4.35;;;2.20;;
53646;SDS011;39550;52.230;5.194;2023-07-31T00:11:03;3.97;;;2.20;;
53646;SDS011;39550;52.230;5.194;2023-07-31T00:13:28;3.50;;;2.13;;
53646;SDS011;39550;52.230;5.194;2023-07-31T00:15:54;3.83;;;1.98;;
53646;SDS011;39550;52.230;5.194;2023-07-31T00:18:20;3.90;;;2.00;;
53646;SDS011;39550;52.230;5.194;2023-07-31T00:20:45;5.30;;;2.10;;
53646;SDS011;39550;52.230;5.194;2023-07-31T00:23:10;4.15;;;1.88;;
53646;SDS011;39550;52.230;5.194;2023-07-31T00:25:36;5.80;;;2.20;;
53646;SDS011;39550;52.230;5.194;2023-07-31T00:28:01;3.58;;;2.15;;
53646;SDS011;39550;52.230;5.194;2023-07-31T00:30:27;3.95;;;2.20;;
53646;SDS011;39550;52.230;5.194;2023-07-31T00:32:52;4.72;;;2.42;;
53646;SDS011;39550;52.230;5.194;2023-07-31T00:35:18;4.30;;;2.10;;
53646;SDS011;39550;52.230;5.194;2023-07-31T00:37:43;4.82;;;2.15;;
53646;SDS011;39550;52.230;5.194;2023-07-31T00:40:09;3.60;;;2.00;;
53646;SDS011;39550;52.230;5.194;2023-07-31T00:42:34;4.18;;;2.17;;
53646;SDS011;39550;52.230;5.194;2023-07-31T00:45:00;3.83;;;2.13;;
53646;SDS011;39550;52.230;5.194;2023-07-31T00:47:25;5.63;;;2.38;;
53646;SDS011;39550;52.230;5.194;2023-07-31T00:49:51;4.80;;;2.35;;
53646;SDS011;39550;52.230;5.194;2023-07-31T00:52:17;4.75;;;2.30;;
53646;SDS011;39550;52.230;5.194;2023-07-31T00:54:43;5.40;;;2.75;;
53646;SDS011;39550;52.230;5.194;2023-07-31T00:57:09;6.00;;;3.03;;
53646;SDS011;39550;52.230;5.194;2023-07-31T00:59:34;6.40;;;2.97;;
53646;SDS011;39550;52.230;5.194;2023-07-31T01:02:00;6.13;;;2.70;;
53646;SDS011;39550;52.230;5.194;2023-07-31T01:04:26;7.85;;;3.20;;
53646;SDS011;39550;52.230;5.194;2023-07-31T01:12:04;9.38;;;4.00;;
53646;SDS011;39550;52.230;5.194;2023-07-31T01:14:31;8.45;;;3.22;;
53646;SDS011;39550;52.230;5.194;2023-07-31T01:16:57;6.05;;;3.38;;
53646;SDS011;39550;52.230;5.194;2023-07-31T01:19:23;6.75;;;3.05;;
53646;SDS011;39550;52.230;5.194;2023-07-31T01:27:24;6.45;;;3.20;;
53646;SDS011;39550;52.230;5.194;2023-07-31T01:29:56;6.80;;;3.40;;
53646;SDS011;39550;52.230;5.194;2023-07-31T01:32:29;5.80;;;3.00;;
53646;SDS011;39550;52.230;5.194;2023-07-31T01:34:55;6.43;;;3.33;;
53646;SDS011;39550;52.230;5.194;2023-07-31T01:37:27;6.93;;;3.80;;
53646;SDS011;39550;52.230;5.194;2023-07-31T01:39:54;9.30;;;3.45;;
53646;SDS011;39550;52.230;5.194;2023-07-31T01:42:20;7.00;;;3.50;;
53646;SDS011;39550;52.230;5.194;2023-07-31T01:44:45;5.60;;;3.20;;
53646;SDS011;39550;52.230;5.194;2023-07-31T01:47:10;6.95;;;3.50;;
53646;SDS011;39550;52.230;5.194;2023-07-31T01:49:36;8.85;;;3.70;;
53646;SDS011;39550;52.230;5.194;2023-07-31T01:52:02;4.95;;;3.03;;
53646;SDS011;39550;52.230;5.194;2023-07-31T01:54:28;5.80;;;2.80;;
53646;SDS011;39550;52.230;5.194;2023-07-31T01:56:53;5.88;;;3.50;;
53646;SDS011;39550;52.230;5.194;2023-07-31T01:59:18;7.50;;;3.50;;
53646;SDS011;39550;52.230;5.194;2023-07-31T02:01:44;6.55;;;3.10;;
53646;SDS011;39550;52.230;5.194;2023-07-31T02:04:09;6.93;;;3.25;;
53646;SDS011;39550;52.230;5.194;2023-07-31T02:06:35;7.22;;;3.65;;
53646;SDS011;39550;52.230;5.194;2023-07-31T02:09:00;7.15;;;3.60;;
53646;SDS011;39550;52.230;5.194;2023-07-31T02:11:26;8.70;;;4.05;;
53646;SDS011;39550;52.230;5.194;2023-07-31T02:13:51;9.20;;;3.60;;
53646;SDS011;39550;52.230;5.194;2023-07-31T02:16:17;8.75;;;3.72;;
53646;SDS011;39550;52.230;5.194;2023-07-31T02:18:42;6.30;;;3.45;;
53646;SDS011;39550;52.230;5.194;2023-07-31T02:21:07;6.82;;;3.85;;
53646;SDS011;39550;52.230;5.194;2023-07-31T02:23:33;11.10;;;4.05;;
53646;SDS011;39550;52.230;5.194;2023-07-31T02:25:58;9.20;;;4.05;;
53646;SDS011;39550;52.230;5.194;2023-07-31T02:28:24;8.63;;;4.20;;
53646;SDS011;39550;52.230;5.194;2023-07-31T02:30:50;9.05;;;4.03;;
53646;SDS011;39550;52.230;5.194;2023-07-31T02:33:16;8.40;;;3.88;;
53646;SDS011;39550;52.230;5.194;2023-07-31T02:35:42;12.23;;;4.43;;
53646;SDS011;39550;52.230;5.194;2023-07-31T02:38:08;10.23;;;4.55;;
53646;SDS011;39550;52.230;5.194;2023-07-31T02:40:33;8.13;;;4.35;;
53646;SDS011;39550;52.230;5.194;2023-07-31T02:42:59;8.27;;;4.43;;
53646;SDS011;39550;52.230;5.194;2023-07-31T02:45:25;9.48;;;4.68;;
53646;SDS011;39550;52.230;5.194;2023-07-31T02:47:51;11.63;;;4.80;;
53646;SDS011;39550;52.230;5.194;2023-07-31T02:50:16;9.98;;;4.78;;
53646;SDS011;39550;52.230;5.194;2023-07-31T02:52:42;7.63;;;4.03;;
53646;SDS011;39550;52.230;5.194;2023-07-31T02:55:07;9.15;;;4.63;;
53646;SDS011;39550;52.230;5.194;2023-07-31T02:57:33;9.90;;;4.60;;
53646;SDS011;39550;52.230;5.194;2023-07-31T02:59:58;7.72;;;4.43;;
53646;SDS011;39550;52.230;5.194;2023-07-31T03:02:24;9.40;;;5.80;;
53646;SDS011;39550;52.230;5.194;2023-07-31T03:04:49;14.68;;;5.15;;
53646;SDS011;39550;52.230;5.194;2023-07-31T03:07:14;9.63;;;4.95;;
53646;SDS011;39550;52.230;5.194;2023-07-31T03:09:40;10.18;;;4.88;;
53646;SDS011;39550;52.230;5.194;2023-07-31T03:12:05;10.07;;;5.40;;
53646;SDS011;39550;52.230;5.194;2023-07-31T03:14:31;10.63;;;4.82;;
53646;SDS011;39550;52.230;5.194;2023-07-31T03:16:56;11.10;;;5.30;;
53646;SDS011;39550;52.230;5.194;2023-07-31T03:19:22;14.00;;;5.75;;
53646;SDS011;39550;52.230;5.194;2023-07-31T03:21:47;8.65;;;4.40;;
53646;SDS011;39550;52.230;5.194;2023-07-31T03:24:13;13.32;;;5.40;;
53646;SDS011;39550;52.230;5.194;2023-07-31T03:26:38;11.80;;;5.38;;
53646;SDS011;39550;52.230;5.194;2023-07-31T03:29:06;12.80;;;5.43;;
53646;SDS011;39550;52.230;5.194;2023-07-31T03:31:32;9.00;;;4.75;;
53646;SDS011;39550;52.230;5.194;2023-07-31T03:33:57;10.73;;;5.07;;
53646;SDS011;39550;52.230;5.194;2023-07-31T03:36:23;12.98;;;5.00;;
53646;SDS011;39550;52.230;5.194;2023-07-31T03:38:48;9.55;;;5.43;;
53646;SDS011;39550;52.230;5.194;2023-07-31T03:41:14;10.48;;;4.93;;
53646;SDS011;39550;52.230;5.194;2023-07-31T03:43:39;12.38;;;5.25;;
53646;SDS011;39550;52.230;5.194;2023-07-31T03:46:05;12.43;;;5.57;;
53646;SDS011;39550;52.230;5.194;2023-07-31T03:48:30;8.68;;;5.10;;
53646;SDS011;39550;52.230;5.194;2023-07-31T03:50:56;11.45;;;5.05;;
53646;SDS011;39550;52.230;5.194;2023-07-31T03:53:21;10.35;;;5.07;;
53646;SDS011;39550;52.230;5.194;2023-07-31T03:55:47;11.60;;;5.68;;
53646;SDS011;39550;52.230;5.194;2023-07-31T03:58:12;12.10;;;5.78;;
53646;SDS011;39550;52.230;5.194;2023-07-31T04:00:39;13.02;;;5.38;;
53646;SDS011;39550;52.230;5.194;2023-07-31T04:03:05;9.00;;;4.90;;
53646;SDS011;39550;52.230;5.194;2023-07-31T04:05:31;15.82;;;5.57;;
53646;SDS011;39550;52.230;5.194;2023-07-31T04:07:58;12.80;;;5.80;;
53646;SDS011;39550;52.230;5.194;2023-07-31T04:10:23;12.07;;;5.75;;
53646;SDS011;39550;52.230;5.194;2023-07-31T04:12:49;12.77;;;5.85;;
53646;SDS011;39550;52.230;5.194;2023-07-31T04:15:14;10.18;;;5.90;;
53646;SDS011;39550;52.230;5.194;2023-07-31T04:17:40;10.13;;;5.20;;
53646;SDS011;39550;52.230;5.194;2023-07-31T04:20:05;10.20;;;4.97;;
53646;SDS011;39550;52.230;5.194;2023-07-31T04:22:31;13.82;;;5.85;;
53646;SDS011;39550;52.230;5.194;2023-07-31T04:24:56;13.23;;;5.80;;
53646;SDS011;39550;52.230;5.194;2023-07-31T04:27:22;13.30;;;6.47;;
53646;SDS011;39550;52.230;5.194;2023-07-31T04:29:47;10.38;;;5.85;;
53646;SDS011;39550;52.230;5.194;2023-07-31T04:32:13;11.75;;;5.32;;
53646;SDS011;39550;52.230;5.194;2023-07-31T04:34:41;13.57;;;6.00;;
53646;SDS011;39550;52.230;5.194;2023-07-31T04:37:07;12.00;;;6.55;;
53646;SDS011;39550;52.230;5.194;2023-07-31T04:39:32;10.38;;;5.53;;
53646;SDS011;39550;52.230;5.194;2023-07-31T04:41:57;13.43;;;6.13;;
53646;SDS011;39550;52.230;5.194;2023-07-31T04:44:23;12.77;;;5.93;;
53646;SDS011;39550;52.230;5.194;2023-07-31T04:46:48;10.63;;;5.53;;
53646;SDS011;39550;52.230;5.194;2023-07-31T04:49:13;16.23;;;5.85;;
53646;SDS011;39550;52.230;5.194;2023-07-31T04:51:39;13.18;;;6.00;;
53646;SDS011;39550;52.230;5.194;2023-07-31T04:54:05;12.70;;;5.20;;
53646;SDS011;39550;52.230;5.194;2023-07-31T04:56:31;12.85;;;5.93;;
53646;SDS011;39550;52.230;5.194;2023-07-31T04:58:56;10.48;;;5.35;;
53646;SDS011;39550;52.230;5.194;2023-07-31T05:01:22;10.05;;;5.35;;
53646;SDS011;39550;52.230;5.194;2023-07-31T05:03:47;11.07;;;5.60;;
53646;SDS011;39550;52.230;5.194;2023-07-31T05:06:12;12.20;;;6.10;;
53646;SDS011;39550;52.230;5.194;2023-07-31T05:08:40;11.43;;;5.95;;
53646;SDS011;39550;52.230;5.194;2023-07-31T05:11:06;15.75;;;6.75;;
53646;SDS011;39550;52.230;5.194;2023-07-31T05:13:31;10.35;;;5.35;;
53646;SDS011;39550;52.230;5.194;2023-07-31T05:15:56;12.52;;;5.63;;
53646;SDS011;39550;52.230;5.194;2023-07-31T05:18:22;9.70;;;6.18;;
53646;SDS011;39550;52.230;5.194;2023-07-31T05:20:47;12.50;;;5.75;;
53646;SDS011;39550;52.230;5.194;2023-07-31T05:23:13;10.05;;;5.40;;
53646;SDS011;39550;52.230;5.194;2023-07-31T05:25:39;11.65;;;5.68;;
53646;SDS011;39550;52.230;5.194;2023-07-31T05:28:05;11.10;;;5.90;;
53646;SDS011;39550;52.230;5.194;2023-07-31T05:30:30;9.93;;;4.93;;
53646;SDS011;39550;52.230;5.194;2023-07-31T05:32:56;10.52;;;4.95;;
53646;SDS011;39550;52.230;5.194;2023-07-31T05:35:21;10.02;;;5.10;;
53646;SDS011;39550;52.230;5.194;2023-07-31T05:37:47;10.77;;;5.22;;
53646;SDS011;39550;52.230;5.194;2023-07-31T05:40:12;8.15;;;4.65;;
53646;SDS011;39550;52.230;5.194;2023-07-31T05:42:38;11.15;;;4.97;;
53646;SDS011;39550;52.230;5.194;2023-07-31T05:45:04;10.48;;;4.50;;
53646;SDS011;39550;52.230;5.194;2023-07-31T05:47:30;8.52;;;4.72;;
53646;SDS011;39550;52.230;5.194;2023-07-31T05:49:56;9.77;;;5.25;;
53646;SDS011;39550;52.230;5.194;2023-07-31T05:52:21;9.30;;;4.65;;
53646;SDS011;39550;52.230;5.194;2023-07-31T05:54:46;7.70;;;4.70;;
53646;SDS011;39550;52.230;5.194;2023-07-31T05:57:12;9.35;;;4.72;;
53646;SDS011;39550;52.230;5.194;2023-07-31T05:59:37;8.15;;;4.47;;
53646;SDS011;39550;52.230;5.194;2023-07-31T06:02:03;7.60;;;4.53;;
53646;SDS011;39550;52.230;5.194;2023-07-31T06:04:29;7.95;;;4.72;;
53646;SDS011;39550;52.230;5.194;2023-07-31T06:06:54;8.18;;;4.30;;
53646;SDS011;39550;52.230;5.194;2023-07-31T06:09:20;6.90;;;4.13;;
53646;SDS011;39550;52.230;5.194;2023-07-31T06:11:46;9.40;;;5.15;;
53646;SDS011;39550;52.230;5.194;2023-07-31T06:14:11;7.38;;;4.22;;
53646;SDS011;39550;52.230;5.194;2023-07-31T06:16:36;7.00;;;4.05;;
53646;SDS011;39550;52.230;5.194;2023-07-31T06:19:02;7.10;;;4.25;;
53646;SDS011;39550;52.230;5.194;2023-07-31T06:21:27;10.30;;;4.15;;
53646;SDS011;39550;52.230;5.194;2023-07-31T06:23:53;8.18;;;4.35;;
53646;SDS011;39550;52.230;5.194;2023-07-31T06:26:18;8.35;;;4.32;;
53646;SDS011;39550;52.230;5.194;2023-07-31T06:28:43;8.23;;;4.65;;
53646;SDS011;39550;52.230;5.194;2023-07-31T06:31:09;7.68;;;4.18;;
53646;SDS011;39550;52.230;5.194;2023-07-31T06:33:35;7.72;;;4.30;;
53646;SDS011;39550;52.230;5.194;2023-07-31T06:36:00;8.07;;;4.40;;
53646;SDS011;39550;52.230;5.194;2023-07-31T06:38:26;7.45;;;3.80;;
53646;SDS011;39550;52.230;5.194;2023-07-31T06:40:52;8.35;;;4.15;;
53646;SDS011;39550;52.230;5.194;2023-07-31T06:43:17;7.30;;;3.40;;
53646;SDS011;39550;52.230;5.194;2023-07-31T06:45:43;7.63;;;4.30;;
53646;SDS011;39550;52.230;5.194;2023-07-31T06:48:09;8.68;;;3.78;;
53646;SDS011;39550;52.230;5.194;2023-07-31T06:50:34;6.60;;;3.78;;
53646;SDS011;39550;52.230;5.194;2023-07-31T06:53:00;7.80;;;4.32;;
53646;SDS011;39550;52.230;5.194;2023-07-31T06:55:25;7.32;;;3.55;;
53646;SDS011;39550;52.230;5.194;2023-07-31T06:57:53;7.00;;;4.10;;
53646;SDS011;39550;52.230;5.194;2023-07-31T07:00:20;7.43;;;4.07;;
53646;SDS011;39550;52.230;5.194;2023-07-31T07:02:47;7.90;;;3.97;;
53646;SDS011;39550;52.230;5.194;2023-07-31T07:05:13;6.38;;;3.50;;
53646;SDS011;39550;52.230;5.194;2023-07-31T07:07:39;8.13;;;4.20;;
53646;SDS011;39550;52.230;5.194;2023-07-31T07:10:05;6.28;;;3.83;;
53646;SDS011;39550;52.230;5.194;2023-07-31T07:12:31;8.68;;;4.18;;
53646;SDS011;39550;52.230;5.194;2023-07-31T07:14:57;7.53;;;3.65;;
53646;SDS011;39550;52.230;5.194;2023-07-31T07:17:23;6.45;;;3.38;;
53646;SDS011;39550;52.230;5.194;2023-07-31T07:19:49;6.20;;;3.35;;
53646;SDS011;39550;52.230;5.194;2023-07-31T07:22:15;5.40;;;3.10;;
53646;SDS011;39550;52.230;5.194;2023-07-31T07:24:40;6.18;;;3.60;;
53646;SDS011;39550;52.230;5.194;2023-07-31T07:27:06;6.85;;;3.80;;
53646;SDS011;39550;52.230;5.194;2023-07-31T07:29:33;5.88;;;3.40;;
53646;SDS011;39550;52.230;5.194;2023-07-31T07:31:59;6.53;;;3.38;;
53646;SDS011;39550;52.230;5.194;2023-07-31T07:34:27;5.70;;;3.20;;
53646;SDS011;39550;52.230;5.194;2023-07-31T07:36:53;4.75;;;2.95;;
53646;SDS011;39550;52.230;5.194;2023-07-31T07:39:19;6.63;;;3.38;;
53646;SDS011;39550;52.230;5.194;2023-07-31T07:41:45;4.80;;;3.17;;
53646;SDS011;39550;52.230;5.194;2023-07-31T07:44:10;5.63;;;3.40;;
53646;SDS011;39550;52.230;5.194;2023-07-31T07:46:36;5.00;;;3.20;;
53646;SDS011;39550;52.230;5.194;2023-07-31T07:49:01;5.50;;;3.05;;
53646;SDS011;39550;52.230;5.194;2023-07-31T07:51:27;5.65;;;3.15;;
53646;SDS011;39550;52.230;5.194;2023-07-31T07:53:52;4.88;;;2.90;;
53646;SDS011;39550;52.230;5.194;2023-07-31T07:56:17;5.43;;;3.05;;
53646;SDS011;39550;52.230;5.194;2023-07-31T07:58:43;5.78;;;3.10;;
53646;SDS011;39550;52.230;5.194;2023-07-31T08:01:08;5.13;;;2.67;;
53646;SDS011;39550;52.230;5.194;2023-07-31T08:03:34;4.13;;;2.58;;
53646;SDS011;39550;52.230;5.194;2023-07-31T08:05:59;4.93;;;2.78;;
53646;SDS011;39550;52.230;5.194;2023-07-31T08:08:25;5.05;;;2.78;;
53646;SDS011;39550;52.230;5.194;2023-07-31T08:10:51;4.93;;;2.90;;
53646;SDS011;39550;52.230;5.194;2023-07-31T08:13:18;5.07;;;2.47;;
53646;SDS011;39550;52.230;5.194;2023-07-31T08:15:43;5.80;;;2.75;;
53646;SDS011;39550;52.230;5.194;2023-07-31T08:18:09;4.70;;;2.67;;
53646;SDS011;39550;52.230;5.194;2023-07-31T08:20:36;6.10;;;2.35;;
53646;SDS011;39550;52.230;5.194;2023-07-31T08:23:02;4.22;;;2.40;;
53646;SDS011;39550;52.230;5.194;2023-07-31T08:25:27;4.28;;;2.35;;
53646;SDS011;39550;52.230;5.194;2023-07-31T08:27:53;4.10;;;2.30;;
53646;SDS011;39550;52.230;5.194;2023-07-31T08:30:19;4.15;;;2.35;;
53646;SDS011;39550;52.230;5.194;2023-07-31T08:32:47;3.80;;;2.20;;
53646;SDS011;39550;52.230;5.194;2023-07-31T08:35:12;4.32;;;2.20;;
53646;SDS011;39550;52.230;5.194;2023-07-31T08:37:38;4.63;;;2.50;;
53646;SDS011;39550;52.230;5.194;2023-07-31T08:40:05;4.32;;;2.30;;
53646;SDS011;39550;52.230;5.194;2023-07-31T08:42:31;4.32;;;2.30;;
53646;SDS011;39550;52.230;5.194;2023-07-31T08:44:57;3.90;;;2.00;;
53646;SDS011;39550;52.230;5.194;2023-07-31T08:47:27;3.83;;;2.20;;
53646;SDS011;39550;52.230;5.194;2023-07-31T08:49:54;4.00;;;2.30;;
53646;SDS011;39550;52.230;5.194;2023-07-31T08:52:20;3.78;;;2.03;;
53646;SDS011;39550;52.230;5.194;2023-07-31T08:54:47;4.03;;;2.20;;
53646;SDS011;39550;52.230;5.194;2023-07-31T08:57:13;4.55;;;2.47;;
53646;SDS011;39550;52.230;5.194;2023-07-31T08:59:39;3.90;;;2.10;;
53646;SDS011;39550;52.230;5.194;2023-07-31T09:02:07;3.67;;;2.03;;
53646;SDS011;39550;52.230;5.194;2023-07-31T09:04:33;4.10;;;2.20;;
53646;SDS011;39550;52.230;5.194;2023-07-31T09:07:01;4.38;;;2.30;;
53646;SDS011;39550;52.230;5.194;2023-07-31T09:09:29;3.95;;;2.10;;
53646;SDS011;39550;52.230;5.194;2023-07-31T09:11:55;3.58;;;2.10;;
53646;SDS011;39550;52.230;5.194;2023-07-31T09:14:22;3.38;;;2.10;;
53646;SDS011;39550;52.230;5.194;2023-07-31T09:16:51;3.33;;;1.88;;
53646;SDS011;39550;52.230;5.194;2023-07-31T09:19:25;5.68;;;2.65;;
53646;SDS011;39550;52.230;5.194;2023-07-31T09:22:02;3.17;;;1.88;;
53646;SDS011;39550;52.230;5.194;2023-07-31T09:24:29;3.45;;;1.80;;
53646;SDS011;39550;52.230;5.194;2023-07-31T09:26:56;3.95;;;2.10;;
53646;SDS011;39550;52.230;5.194;2023-07-31T09:29:23;3.28;;;1.85;;
53646;SDS011;39550;52.230;5.194;2023-07-31T09:31:50;3.65;;;2.10;;
53646;SDS011;39550;52.230;5.194;2023-07-31T09:34:16;4.57;;;2.08;;
53646;SDS011;39550;52.230;5.194;2023-07-31T09:36:42;3.60;;;2.10;;
53646;SDS011;39550;52.230;5.194;2023-07-31T09:39:12;3.00;;;1.80;;
53646;SDS011;39550;52.230;5.194;2023-07-31T09:41:39;3.55;;;2.00;;
53646;SDS011;39550;52.230;5.194;2023-07-31T09:44:09;4.22;;;2.00;;
53646;SDS011;39550;52.230;5.194;2023-07-31T09:46:35;3.88;;;2.20;;
53646;SDS011;39550;52.230;5.194;2023-07-31T09:49:09;3.85;;;2.00;;
53646;SDS011;39550;52.230;5.194;2023-07-31T09:51:39;3.40;;;1.90;;
53646;SDS011;39550;52.230;5.194;2023-07-31T09:54:12;5.60;;;2.00;;
53646;SDS011;39550;52.230;5.194;2023-07-31T10:01:41;3.50;;;1.88;;
53646;SDS011;39550;52.230;5.194;2023-07-31T10:04:09;3.45;;;1.80;;
53646;SDS011;39550;52.230;5.194;2023-07-31T10:06:36;3.30;;;2.00;;
53646;SDS011;39550;52.230;5.194;2023-07-31T10:09:03;3.15;;;1.70;;
53646;SDS011;39550;52.230;5.194;2023-07-31T10:11:33;3.42;;;1.88;;
53646;SDS011;39550;52.230;5.194;2023-07-31T10:14:06;2.70;;;1.70;;
53646;SDS011;39550;52.230;5.194;2023-07-31T10:16:32;3.70;;;2.00;;
53646;SDS011;39550;52.230;5.194;2023-07-31T10:19:01;3.20;;;1.90;;
53646;SDS011;39550;52.230;5.194;2023-07-31T10:21:27;3.30;;;1.90;;
53646;SDS011;39550;52.230;5.194;2023-07-31T10:23:52;3.33;;;1.95;;
53646;SDS011;39550;52.230;5.194;2023-07-31T10:26:20;4.45;;;2.10;;
53646;SDS011;39550;52.230;5.194;2023-07-31T10:28:50;3.25;;;1.90;;
53646;SDS011;39550;52.230;5.194;2023-07-31T10:31:17;4.30;;;2.08;;
53646;SDS011;39550;52.230;5.194;2023-07-31T10:33:44;3.42;;;1.90;;
53646;SDS011;39550;52.230;5.194;2023-07-31T10:36:14;3.63;;;1.90;;
53646;SDS011;39550;52.230;5.194;2023-07-31T10:38:43;4.65;;;1.90;;
53646;SDS011;39550;52.230;5.194;2023-07-31T10:41:09;3.83;;;2.10;;
53646;SDS011;39550;52.230;5.194;2023-07-31T10:43:35;3.75;;;2.10;;
53646;SDS011;39550;52.230;5.194;2023-07-31T10:46:06;3.75;;;2.00;;
53646;SDS011;39550;52.230;5.194;2023-07-31T10:48:33;4.75;;;2.03;;
53646;SDS011;39550;52.230;5.194;2023-07-31T10:50:59;3.80;;;1.90;;
53646;SDS011;39550;52.230;5.194;2023-07-31T10:53:29;2.97;;;1.73;;
53646;SDS011;39550;52.230;5.194;2023-07-31T10:56:14;3.72;;;1.90;;
53646;SDS011;39550;52.230;5.194;2023-07-31T10:58:44;4.00;;;2.20;;
53646;SDS011;39550;52.230;5.194;2023-07-31T11:01:11;4.00;;;2.00;;
53646;SDS011;39550;52.230;5.194;2023-07-31T11:03:43;4.03;;;1.83;;
53646;SDS011;39550;52.230;5.194;2023-07-31T11:06:13;3.90;;;2.03;;
53646;SDS011;39550;52.230;5.194;2023-07-31T11:08:42;3.70;;;2.00;;
53646;SDS011;39550;52.230;5.194;2023-07-31T11:11:09;3.88;;;2.10;;
53646;SDS011;39550;52.230;5.194;2023-07-31T11:13:40;3.78;;;1.90;;
53646;SDS011;39550;52.230;5.194;2023-07-31T11:16:09;3.55;;;2.00;;
53646;SDS011;39550;52.230;5.194;2023-07-31T11:18:38;3.65;;;2.10;;
53646;SDS011;39550;52.230;5.194;2023-07-31T11:21:04;3.60;;;2.03;;
53646;SDS011;39550;52.230;5.194;2023-07-31T11:23:30;4.80;;;2.47;;
53646;SDS011;39550;52.230;5.194;2023-07-31T11:25:58;4.45;;;2.50;;
53646;SDS011;39550;52.230;5.194;2023-07-31T11:28:24;3.70;;;2.10;;
53646;SDS011;39550;52.230;5.194;2023-07-31T11:30:51;3.97;;;2.20;;
53646;SDS011;39550;52.230;5.194;2023-07-31T11:33:16;4.18;;;2.17;;
53646;SDS011;39550;52.230;5.194;2023-07-31T11:35:46;4.32;;;2.17;;
53646;SDS011;39550;52.230;5.194;2023-07-31T11:38:31;5.00;;;2.50;;
53646;SDS011;39550;52.230;5.194;2023-07-31T11:40:58;4.68;;;2.10;;
53646;SDS011;39550;52.230;5.194;2023-07-31T11:45:56;4.20;;;2.03;;
53646;SDS011;39550;52.230;5.194;2023-07-31T11:48:30;4.22;;;2.33;;
53646;SDS011;39550;52.230;5.194;2023-07-31T11:53:26;4.47;;;2.33;;
53646;SDS011;39550;52.230;5.194;2023-07-31T11:55:52;4.18;;;2.03;;
53646;SDS011;39550;52.230;5.194;2023-07-31T11:58:19;4.03;;;2.20;;
53646;SDS011;39550;52.230;5.194;2023-07-31T12:00:45;4.28;;;2.38;;
53646;SDS011;39550;52.230;5.194;2023-07-31T12:03:12;4.53;;;2.60;;
53646;SDS011;39550;52.230;5.194;2023-07-31T12:05:38;4.40;;;2.33;;
53646;SDS011;39550;52.230;5.194;2023-07-31T12:08:08;4.18;;;2.72;;
53646;SDS011;39550;52.230;5.194;2023-07-31T12:10:36;4.03;;;2.15;;
53646;SDS011;39550;52.230;5.194;2023-07-31T12:13:09;4.93;;;2.40;;
53646;SDS011;39550;52.230;5.194;2023-07-31T12:18:18;4.82;;;2.58;;
53646;SDS011;39550;52.230;5.194;2023-07-31T12:20:45;3.80;;;2.28;;
53646;SDS011;39550;52.230;5.194;2023-07-31T12:23:13;5.80;;;2.50;;
53646;SDS011;39550;52.230;5.194;2023-07-31T12:25:43;4.65;;;2.63;;
53646;SDS011;39550;52.230;5.194;2023-07-31T12:28:10;4.53;;;2.35;;
53646;SDS011;39550;52.230;5.194;2023-07-31T12:30:39;4.78;;;2.50;;
53646;SDS011;39550;52.230;5.194;2023-07-31T12:35:46;5.75;;;3.03;;
53646;SDS011;39550;52.230;5.194;2023-07-31T12:38:12;4.78;;;2.40;;
53646;SDS011;39550;52.230;5.194;2023-07-31T12:40:39;5.25;;;2.50;;
53646;SDS011;39550;52.230;5.194;2023-07-31T12:43:06;5.47;;;2.60;;
53646;SDS011;39550;52.230;5.194;2023-07-31T12:45:33;4.85;;;2.67;;
53646;SDS011;39550;52.230;5.194;2023-07-31T12:47:59;4.30;;;2.47;;
53646;SDS011;39550;52.230;5.194;2023-07-31T12:50:26;6.18;;;2.50;;
53646;SDS011;39550;52.230;5.194;2023-07-31T12:52:55;5.88;;;2.83;;
53646;SDS011;39550;52.230;5.194;2023-07-31T12:57:46;5.40;;;3.25;;
53646;SDS011;39550;52.230;5.194;2023-07-31T13:00:12;4.20;;;2.80;;
53646;SDS011;39550;52.230;5.194;2023-07-31T13:02:39;5.32;;;2.95;;
53646;SDS011;39550;52.230;5.194;2023-07-31T13:05:05;4.63;;;2.80;;
53646;SDS011;39550;52.230;5.194;2023-07-31T13:07:30;4.82;;;2.60;;
53646;SDS011;39550;52.230;5.194;2023-07-31T13:09:57;4.43;;;2.58;;
53646;SDS011;39550;52.230;5.194;2023-07-31T13:12:24;5.22;;;2.60;;
53646;SDS011;39550;52.230;5.194;2023-07-31T13:14:49;4.72;;;2.60;;
53646;SDS011;39550;52.230;5.194;2023-07-31T13:17:15;5.38;;;2.38;;
53646;SDS011;39550;52.230;5.194;2023-07-31T13:19:41;5.93;;;2.80;;
53646;SDS011;39550;52.230;5.194;2023-07-31T13:22:07;4.40;;;2.90;;
53646;SDS011;39550;52.230;5.194;2023-07-31T13:24:33;5.90;;;2.90;;
53646;SDS011;39550;52.230;5.194;2023-07-31T13:26:58;5.10;;;3.25;;
53646;SDS011;39550;52.230;5.194;2023-07-31T13:29:24;6.40;;;2.97;;
53646;SDS011;39550;52.230;5.194;2023-07-31T13:31:50;5.75;;;2.97;;
53646;SDS011;39550;52.230;5.194;2023-07-31T13:34:18;5.10;;;3.00;;
53646;SDS011;39550;52.230;5.194;2023-07-31T13:36:43;5.97;;;2.95;;
53646;SDS011;39550;52.230;5.194;2023-07-31T13:39:09;5.15;;;2.95;;
53646;SDS011;39550;52.230;5.194;2023-07-31T13:41:35;5.18;;;2.95;;
53646;SDS011;39550;52.230;5.194;2023-07-31T13:44:02;6.43;;;3.33;;
53646;SDS011;39550;52.230;5.194;2023-07-31T13:46:28;7.68;;;3.10;;
53646;SDS011;39550;52.230;5.194;2023-07-31T13:48:54;4.82;;;3.05;;
53646;SDS011;39550;52.230;5.194;2023-07-31T13:51:20;6.40;;;3.08;;
53646;SDS011;39550;52.230;5.194;2023-07-31T13:53:46;5.10;;;3.00;;
53646;SDS011;39550;52.230;5.194;2023-07-31T13:56:12;5.70;;;3.03;;
53646;SDS011;39550;52.230;5.194;2023-07-31T13:58:37;5.75;;;2.83;;
53646;SDS011;39550;52.230;5.194;2023-07-31T14:01:03;4.80;;;3.15;;
53646;SDS011;39550;52.230;5.194;2023-07-31T14:03:29;4.13;;;2.60;;
53646;SDS011;39550;52.230;5.194;2023-07-31T14:05:54;6.03;;;3.10;;
53646;SDS011;39550;52.230;5.194;2023-07-31T14:08:22;4.15;;;2.83;;
53646;SDS011;39550;52.230;5.194;2023-07-31T14:10:48;5.00;;;3.10;;
53646;SDS011;39550;52.230;5.194;2023-07-31T14:13:14;5.65;;;3.35;;
53646;SDS011;39550;52.230;5.194;2023-07-31T14:15:43;5.15;;;3.00;;
53646;SDS011;39550;52.230;5.194;2023-07-31T14:18:08;4.75;;;2.90;;
53646;SDS011;39550;52.230;5.194;2023-07-31T14:20:34;5.80;;;3.10;;
53646;SDS011;39550;52.230;5.194;2023-07-31T14:23:00;5.07;;;3.10;;
53646;SDS011;39550;52.230;5.194;2023-07-31T14:25:27;4.10;;;2.83;;
53646;SDS011;39550;52.230;5.194;2023-07-31T14:27:52;5.97;;;3.10;;
53646;SDS011;39550;52.230;5.194;2023-07-31T14:30:18;4.93;;;2.70;;
53646;SDS011;39550;52.230;5.194;2023-07-31T14:32:43;6.20;;;3.30;;
53646;SDS011;39550;52.230;5.194;2023-07-31T14:35:09;4.80;;;3.00;;
53646;SDS011;39550;52.230;5.194;2023-07-31T14:37:40;6.10;;;3.08;;
53646;SDS011;39550;52.230;5.194;2023-07-31T14:40:07;4.82;;;3.17;;
53646;SDS011;39550;52.230;5.194;2023-07-31T14:42:34;4.72;;;3.17;;
53646;SDS011;39550;52.230;5.194;2023-07-31T14:45:00;5.22;;;2.95;;
53646;SDS011;39550;52.230;5.194;2023-07-31T14:47:25;5.03;;;2.90;;
53646;SDS011;39550;52.230;5.194;2023-07-31T14:49:51;4.90;;;3.22;;
53646;SDS011;39550;52.230;5.194;2023-07-31T14:52:16;4.50;;;2.90;;
53646;SDS011;39550;52.230;5.194;2023-07-31T14:54:42;4.90;;;3.00;;
53646;SDS011;39550;52.230;5.194;2023-07-31T14:57:07;5.38;;;3.15;;
53646;SDS011;39550;52.230;5.194;2023-07-31T14:59:33;5.22;;;2.85;;
53646;SDS011;39550;52.230;5.194;2023-07-31T15:01:58;4.13;;;2.53;;
53646;SDS011;39550;52.230;5.194;2023-07-31T15:04:24;4.78;;;2.80;;
53646;SDS011;39550;52.230;5.194;2023-07-31T15:06:50;5.60;;;2.92;;
53646;SDS011;39550;52.230;5.194;2023-07-31T15:09:15;4.32;;;2.85;;